Time;durP1;ratioP1;P1;durP2;ratioP2;P2;SDS_P1;SDS_P2;PMS_P1;PMS_P2;Temp;Humidity;BMP_temperature;BMP_pressure;BME280_temperature;BME280_humidity;BME280_pressure;Samples;Min_cycle;Max_cycle;Signal;HPM_P1;HPM_P2
2023/12/27 00:00:29;;;;;;;13.23;1.70;;;;;;;;;;4987026;28;20042;-84
2023/12/27 00:02:56;;;;;;;8.77;1.90;;;;;;;;;;4989431;28;20136;-83
2023/12/27 00:05:22;;;;;;;13.43;2.20;;;;;;;;;;4972802;28;20219;-84
2023/12/27 00:07:48;;;;;;;7.43;1.73;;;;;;;;;;4967699;28;20049;-84
2023/12/27 00:10:14;;;;;;;10.82;1.80;;;;;;;;;;4950484;28;21293;-83
2023/12/27 00:12:40;;;;;;;10.32;2.20;;;;;;;;;;4987049;28;20041;-84
2023/12/27 00:15:07;;;;;;;9.20;1.75;;;;;;;;;;4988252;28;20041;-84
2023/12/27 00:17:34;;;;;;;9.02;1.95;;;;;;;;;;4971925;28;20108;-84
2023/12/27 00:20:00;;;;;;;10.52;2.05;;;;;;;;;;4987729;28;20041;-84
2023/12/27 00:22:26;;;;;;;14.32;1.98;;;;;;;;;;4987613;28;20045;-84
2023/12/27 00:24:52;;;;;;;17.05;2.35;;;;;;;;;;4972739;28;20401;-85
2023/12/27 00:27:18;;;;;;;12.43;2.15;;;;;;;;;;4982129;28;20065;-84
2023/12/27 00:29:44;;;;;;;16.40;1.95;;;;;;;;;;4993478;28;20037;-83
2023/12/27 00:32:11;;;;;;;11.95;1.77;;;;;;;;;;4988008;28;20042;-84
2023/12/27 00:34:37;;;;;;;18.88;2.25;;;;;;;;;;4986731;28;20042;-84
2023/12/27 00:37:03;;;;;;;10.63;2.00;;;;;;;;;;4984293;28;20077;-86
2023/12/27 00:39:30;;;;;;;13.45;2.60;;;;;;;;;;4970364;28;20061;-84
2023/12/27 00:41:56;;;;;;;9.50;2.08;;;;;;;;;;4989836;28;20037;-84
2023/12/27 00:44:22;;;;;;;9.55;2.53;;;;;;;;;;4971814;28;20061;-83
2023/12/27 00:46:48;;;;;;;13.73;3.92;;;;;;;;;;4985737;28;20053;-81
2023/12/27 00:49:14;;;;;;;11.85;1.80;;;;;;;;;;4972919;28;20046;-83
2023/12/27 00:51:40;;;;;;;7.00;1.90;;;;;;;;;;4983198;28;20034;-83
2023/12/27 00:54:06;;;;;;;9.65;1.77;;;;;;;;;;4973520;28;20038;-84
2023/12/27 00:56:32;;;;;;;7.50;2.10;;;;;;;;;;4985214;28;20050;-83
2023/12/27 00:58:59;;;;;;;17.15;3.58;;;;;;;;;;4971007;28;20049;-83
2023/12/27 01:01:25;;;;;;;7.05;1.88;;;;;;;;;;4983065;28;20481;-84
2023/12/27 01:03:51;;;;;;;12.38;3.17;;;;;;;;;;4968807;28;20046;-86
2023/12/27 01:06:18;;;;;;;12.95;2.42;;;;;;;;;;4985777;28;20052;-85
2023/12/27 01:08:44;;;;;;;10.50;3.65;;;;;;;;;;4986984;28;20136;-85
2023/12/27 01:11:10;;;;;;;17.83;2.60;;;;;;;;;;4985265;28;20060;-86
2023/12/27 01:13:36;;;;;;;13.60;2.83;;;;;;;;;;4986321;28;20049;-86
2023/12/27 01:16:02;;;;;;;15.65;3.95;;;;;;;;;;4987991;28;20038;-86
2023/12/27 01:18:28;;;;;;;9.73;2.92;;;;;;;;;;4983799;28;20120;-87
2023/12/27 01:20:54;;;;;;;6.75;2.53;;;;;;;;;;4972323;28;20785;-87
2023/12/27 01:23:20;;;;;;;10.00;3.08;;;;;;;;;;4986280;28;20041;-87
2023/12/27 01:25:46;;;;;;;9.65;2.33;;;;;;;;;;4984162;28;20058;-86
2023/12/27 01:28:12;;;;;;;8.50;2.38;;;;;;;;;;4969985;28;20164;-88
2023/12/27 01:30:38;;;;;;;15.18;2.42;;;;;;;;;;4954657;28;20045;-83
2023/12/27 01:33:04;;;;;;;11.75;2.75;;;;;;;;;;4989353;28;20070;-85
2023/12/27 01:35:30;;;;;;;17.85;3.25;;;;;;;;;;4967757;28;20038;-86
2023/12/27 01:37:57;;;;;;;9.85;2.92;;;;;;;;;;4982320;28;20157;-86
2023/12/27 01:40:23;;;;;;;12.93;2.65;;;;;;;;;;4984022;28;20062;-82
2023/12/27 01:42:49;;;;;;;11.82;2.55;;;;;;;;;;4983769;28;20129;-83
2023/12/27 01:45:15;;;;;;;9.95;3.10;;;;;;;;;;4967322;28;20039;-85
2023/12/27 01:47:42;;;;;;;14.60;2.58;;;;;;;;;;4987414;28;20033;-86
2023/12/27 01:50:09;;;;;;;9.75;2.13;;;;;;;;;;4968612;28;20859;-86
2023/12/27 01:52:42;;;;;;;12.77;4.22;;;;;;;;;;4969539;28;20081;-87
2023/12/27 01:55:09;;;;;;;16.17;2.63;;;;;;;;;;4986102;28;20443;-85
2023/12/27 01:57:38;;;;;;;9.98;2.05;;;;;;;;;;4983971;28;20048;-84
2023/12/27 02:00:05;;;;;;;9.95;2.40;;;;;;;;;;4980634;28;20047;-84
2023/12/27 02:02:31;;;;;;;8.52;2.13;;;;;;;;;;4971300;28;20508;-85
2023/12/27 02:04:57;;;;;;;9.48;2.38;;;;;;;;;;4965456;28;20050;-84
2023/12/27 02:07:23;;;;;;;14.20;2.53;;;;;;;;;;4969082;28;20130;-83
2023/12/27 02:09:50;;;;;;;12.63;2.20;;;;;;;;;;4972839;28;20081;-84
2023/12/27 02:12:23;;;;;;;6.80;2.10;;;;;;;;;;4980302;28;20053;-84
2023/12/27 02:14:49;;;;;;;11.85;2.35;;;;;;;;;;4969020;28;20049;-84
2023/12/27 02:17:15;;;;;;;8.77;2.40;;;;;;;;;;4982464;28;20041;-84
2023/12/27 02:19:42;;;;;;;12.63;2.42;;;;;;;;;;4953468;28;20065;-82
2023/12/27 02:22:09;;;;;;;12.60;2.25;;;;;;;;;;4982060;28;20516;-84
2023/12/27 02:24:36;;;;;;;10.60;2.55;;;;;;;;;;4984106;28;20104;-84
2023/12/27 02:27:03;;;;;;;14.20;3.50;;;;;;;;;;4983054;28;20050;-84
2023/12/27 02:29:29;;;;;;;20.70;3.08;;;;;;;;;;4986687;28;20132;-84
2023/12/27 02:31:55;;;;;;;8.93;2.10;;;;;;;;;;4969330;28;20046;-84
2023/12/27 02:34:21;;;;;;;5.35;2.10;;;;;;;;;;4985598;28;20052;-84
2023/12/27 02:36:48;;;;;;;11.07;2.65;;;;;;;;;;4984605;28;20050;-84
2023/12/27 02:39:14;;;;;;;13.23;2.55;;;;;;;;;;4954957;28;20464;-84
2023/12/27 02:41:40;;;;;;;12.75;2.72;;;;;;;;;;4988621;28;20060;-83
2023/12/27 02:44:06;;;;;;;13.70;3.88;;;;;;;;;;4985959;28;20469;-84
2023/12/27 02:46:33;;;;;;;10.70;2.63;;;;;;;;;;4976731;28;20041;-84
2023/12/27 02:48:59;;;;;;;11.65;2.53;;;;;;;;;;4969572;28;20089;-84
2023/12/27 02:51:25;;;;;;;11.68;2.78;;;;;;;;;;4970139;28;20042;-85
2023/12/27 02:53:51;;;;;;;14.20;2.78;;;;;;;;;;4976220;28;20459;-84
2023/12/27 02:56:18;;;;;;;14.63;2.78;;;;;;;;;;4992998;28;20509;-85
2023/12/27 02:58:44;;;;;;;5.55;2.50;;;;;;;;;;4971451;28;20041;-84
2023/12/27 03:01:10;;;;;;;5.95;2.13;;;;;;;;;;4958478;28;20052;-85
2023/12/27 03:03:36;;;;;;;11.75;2.55;;;;;;;;;;4972466;28;21246;-83
2023/12/27 03:06:02;;;;;;;18.70;2.65;;;;;;;;;;4973756;28;20096;-84
2023/12/27 03:08:28;;;;;;;18.33;3.03;;;;;;;;;;4972056;28;20044;-82
2023/12/27 03:10:55;;;;;;;12.55;2.60;;;;;;;;;;4987510;28;20033;-83
2023/12/27 03:13:22;;;;;;;13.27;2.92;;;;;;;;;;4972474;28;20395;-82
2023/12/27 03:15:48;;;;;;;14.80;3.28;;;;;;;;;;4988294;28;20045;-83
2023/12/27 03:18:14;;;;;;;8.40;2.72;;;;;;;;;;4972816;28;20525;-82
2023/12/27 03:20:40;;;;;;;8.15;2.50;;;;;;;;;;4969748;28;20132;-82
2023/12/27 03:23:06;;;;;;;10.95;2.10;;;;;;;;;;4972492;28;20124;-84
2023/12/27 03:25:32;;;;;;;7.82;2.60;;;;;;;;;;4971731;28;20056;-84
2023/12/27 03:27:58;;;;;;;9.35;2.33;;;;;;;;;;4968277;28;20611;-84
2023/12/27 03:30:24;;;;;;;7.38;2.42;;;;;;;;;;4989078;28;20485;-85
2023/12/27 03:32:50;;;;;;;9.82;2.50;;;;;;;;;;4972842;28;20045;-85
2023/12/27 03:35:17;;;;;;;16.08;3.03;;;;;;;;;;4973485;28;20571;-85
2023/12/27 03:37:45;;;;;;;17.67;3.05;;;;;;;;;;4976202;28;20057;-85
2023/12/27 03:40:11;;;;;;;6.88;2.30;;;;;;;;;;4955771;28;20046;-85
2023/12/27 03:42:38;;;;;;;11.63;2.42;;;;;;;;;;4986336;28;20053;-84
2023/12/27 03:45:04;;;;;;;10.65;2.55;;;;;;;;;;4987229;28;20041;-84
2023/12/27 03:47:30;;;;;;;26.05;4.60;;;;;;;;;;4983373;28;20053;-85
2023/12/27 03:49:56;;;;;;;16.60;2.65;;;;;;;;;;4983103;28;20044;-84
2023/12/27 03:52:23;;;;;;;11.77;2.78;;;;;;;;;;4984825;28;20049;-85
2023/12/27 03:54:49;;;;;;;14.27;2.80;;;;;;;;;;4988418;28;20037;-85
2023/12/27 03:57:15;;;;;;;9.27;2.35;;;;;;;;;;4972573;28;20042;-85
2023/12/27 03:59:41;;;;;;;7.60;2.35;;;;;;;;;;4988478;28;20061;-85
2023/12/27 04:02:07;;;;;;;15.27;2.40;;;;;;;;;;4984678;28;20049;-85
2023/12/27 04:04:33;;;;;;;24.23;4.18;;;;;;;;;;4986219;28;20132;-85
2023/12/27 04:07:00;;;;;;;12.02;2.25;;;;;;;;;;4968189;28;20046;-84
2023/12/27 04:09:26;;;;;;;11.02;2.55;;;;;;;;;;4987909;28;20381;-84
2023/12/27 04:11:52;;;;;;;11.05;2.78;;;;;;;;;;4986449;28;20041;-84
2023/12/27 04:14:18;;;;;;;14.75;3.03;;;;;;;;;;4953683;28;20037;-81
2023/12/27 04:16:44;;;;;;;12.20;2.60;;;;;;;;;;4987765;28;20045;-80
2023/12/27 04:19:10;;;;;;;10.38;2.22;;;;;;;;;;4984696;28;20041;-83
2023/12/27 04:21:37;;;;;;;9.20;2.42;;;;;;;;;;4984298;28;20046;-81
2023/12/27 04:24:03;;;;;;;7.97;2.30;;;;;;;;;;4985494;28;20084;-81
2023/12/27 04:26:29;;;;;;;8.35;2.22;;;;;;;;;;4983459;28;20044;-81
2023/12/27 04:28:55;;;;;;;9.70;2.20;;;;;;;;;;4953308;28;20034;-81
2023/12/27 04:31:21;;;;;;;9.52;2.42;;;;;;;;;;4969061;28;20121;-81
2023/12/27 04:33:47;;;;;;;10.13;2.40;;;;;;;;;;4970974;28;20045;-86
2023/12/27 04:36:13;;;;;;;16.83;3.10;;;;;;;;;;4973797;28;20407;-85
2023/12/27 04:38:39;;;;;;;10.60;2.15;;;;;;;;;;4981299;28;20133;-83
2023/12/27 04:41:09;;;;;;;14.57;2.47;;;;;;;;;;4986790;28;20045;-86
2023/12/27 04:43:35;;;;;;;8.38;2.00;;;;;;;;;;4956057;28;20866;-84
2023/12/27 04:46:03;;;;;;;16.20;3.25;;;;;;;;;;5001350;28;20045;-85
2023/12/27 04:48:29;;;;;;;9.10;2.05;;;;;;;;;;4972513;28;20045;-86
2023/12/27 04:50:55;;;;;;;10.88;2.08;;;;;;;;;;4975272;28;20050;-87
2023/12/27 04:53:22;;;;;;;9.90;2.40;;;;;;;;;;4973038;28;20131;-85
2023/12/27 04:55:48;;;;;;;11.77;2.92;;;;;;;;;;4969879;28;20124;-86
2023/12/27 04:58:14;;;;;;;15.48;2.65;;;;;;;;;;4952283;28;20125;-87
2023/12/27 05:00:40;;;;;;;17.27;3.25;;;;;;;;;;4985513;28;20195;-86
2023/12/27 05:03:06;;;;;;;13.15;2.38;;;;;;;;;;4964262;28;20045;-84
2023/12/27 05:05:32;;;;;;;11.40;2.47;;;;;;;;;;4966104;28;20073;-86
2023/12/27 05:07:58;;;;;;;11.98;2.47;;;;;;;;;;4984469;28;20149;-87
2023/12/27 05:10:24;;;;;;;14.60;3.00;;;;;;;;;;4968577;28;20041;-87
2023/12/27 05:12:52;;;;;;;11.25;2.65;;;;;;;;;;4952525;28;20104;-85
2023/12/27 05:15:19;;;;;;;14.27;2.90;;;;;;;;;;4981988;28;20092;-86
2023/12/27 05:17:45;;;;;;;11.07;2.45;;;;;;;;;;4979584;28;20502;-86
2023/12/27 05:20:11;;;;;;;12.95;2.63;;;;;;;;;;4968633;28;20053;-84
2023/12/27 05:22:39;;;;;;;12.85;2.65;;;;;;;;;;4954449;28;20037;-85
2023/12/27 05:25:09;;;;;;;14.45;2.50;;;;;;;;;;4964159;28;20080;-85
2023/12/27 05:27:35;;;;;;;16.55;2.78;;;;;;;;;;4980667;28;20042;-84
2023/12/27 05:30:02;;;;;;;10.95;3.70;;;;;;;;;;4971649;28;20070;-84
2023/12/27 05:32:28;;;;;;;11.23;2.70;;;;;;;;;;4986756;28;20477;-84
2023/12/27 05:34:54;;;;;;;7.57;2.60;;;;;;;;;;4985699;28;20038;-84
2023/12/27 05:37:21;;;;;;;10.43;3.20;;;;;;;;;;4981106;28;20177;-84
2023/12/27 05:39:47;;;;;;;14.55;2.92;;;;;;;;;;4981611;28;20751;-83
2023/12/27 05:42:13;;;;;;;8.93;2.67;;;;;;;;;;4966322;28;20038;-83
2023/12/27 05:44:40;;;;;;;15.35;3.17;;;;;;;;;;4964469;28;20049;-86
2023/12/27 05:47:06;;;;;;;11.30;2.60;;;;;;;;;;4982095;28;20045;-83
2023/12/27 05:49:32;;;;;;;11.35;2.90;;;;;;;;;;4984178;28;20087;-84
2023/12/27 05:51:58;;;;;;;12.43;2.78;;;;;;;;;;4963991;28;20044;-85
2023/12/27 05:54:26;;;;;;;14.10;2.90;;;;;;;;;;4982110;28;20500;-85
2023/12/27 05:56:52;;;;;;;11.60;3.05;;;;;;;;;;4968305;28;20050;-85
2023/12/27 05:59:20;;;;;;;19.38;3.50;;;;;;;;;;4969470;28;20038;-86
2023/12/27 06:01:55;;;;;;;12.70;3.10;;;;;;;;;;4985723;28;20100;-87
2023/12/27 06:04:22;;;;;;;19.13;4.13;;;;;;;;;;4969574;28;20042;-88
2023/12/27 06:06:52;;;;;;;13.00;3.40;;;;;;;;;;4981601;28;20041;-86
2023/12/27 06:09:18;;;;;;;12.90;2.95;;;;;;;;;;4989791;28;20045;-87
2023/12/27 06:11:45;;;;;;;5.80;2.70;;;;;;;;;;4962079;28;20761;-87
2023/12/27 06:14:11;;;;;;;10.00;3.50;;;;;;;;;;4975137;28;20125;-87
2023/12/27 06:16:37;;;;;;;9.80;2.45;;;;;;;;;;4971473;28;20410;-85
2023/12/27 06:19:03;;;;;;;19.15;3.30;;;;;;;;;;4985796;28;20042;-86
2023/12/27 06:21:29;;;;;;;12.65;3.92;;;;;;;;;;4994524;28;20042;-82
2023/12/27 06:23:56;;;;;;;11.60;3.28;;;;;;;;;;4971019;28;20034;-81
2023/12/27 06:26:22;;;;;;;11.13;4.05;;;;;;;;;;4979325;28;20109;-85
2023/12/27 06:28:48;;;;;;;16.88;4.78;;;;;;;;;;4969847;28;20067;-87
2023/12/27 06:31:14;;;;;;;20.80;4.45;;;;;;;;;;4987313;28;20060;-85
2023/12/27 06:33:40;;;;;;;13.30;4.65;;;;;;;;;;4962471;28;20041;-87
2023/12/27 06:36:07;;;;;;;14.57;4.55;;;;;;;;;;4987827;28;20042;-82
2023/12/27 06:38:34;;;;;;;15.93;4.55;;;;;;;;;;4964470;28;20065;-82
2023/12/27 06:41:03;;;;;;;13.75;6.40;;;;;;;;;;4963046;28;20041;-80
2023/12/27 06:43:29;;;;;;;15.02;4.95;;;;;;;;;;4986480;28;20544;-81
2023/12/27 06:45:55;;;;;;;18.35;5.50;;;;;;;;;;4993775;28;20127;-82
2023/12/27 06:48:21;;;;;;;14.23;5.60;;;;;;;;;;4989547;28;20078;-82
2023/12/27 06:50:48;;;;;;;12.23;5.97;;;;;;;;;;4955751;28;20544;-81
2023/12/27 06:53:14;;;;;;;17.90;6.07;;;;;;;;;;4973229;28;20049;-80
2023/12/27 06:55:40;;;;;;;16.17;5.70;;;;;;;;;;4985882;28;20439;-80
2023/12/27 06:58:06;;;;;;;14.40;7.30;;;;;;;;;;4988305;28;20045;-81
2023/12/27 07:00:35;;;;;;;12.18;5.78;;;;;;;;;;4988851;28;20050;-79
2023/12/27 07:03:01;;;;;;;21.30;6.15;;;;;;;;;;4984237;28;20074;-79
2023/12/27 07:05:27;;;;;;;18.38;6.00;;;;;;;;;;4959272;28;20034;-81
2023/12/27 07:07:53;;;;;;;21.38;6.07;;;;;;;;;;4987909;28;20100;-80
2023/12/27 07:10:19;;;;;;;19.33;6.65;;;;;;;;;;4989313;28;20121;-80
2023/12/27 07:12:45;;;;;;;20.83;6.32;;;;;;;;;;4988014;28;20034;-82
2023/12/27 07:15:11;;;;;;;14.50;6.05;;;;;;;;;;4985519;28;20044;-81
2023/12/27 07:17:38;;;;;;;18.00;5.13;;;;;;;;;;4992019;28;20042;-82
2023/12/27 07:20:04;;;;;;;17.00;5.60;;;;;;;;;;4985598;28;20045;-81
2023/12/27 07:22:30;;;;;;;12.25;4.93;;;;;;;;;;4990469;28;20046;-82
2023/12/27 07:24:56;;;;;;;18.40;4.70;;;;;;;;;;4987924;28;20066;-82
2023/12/27 07:27:22;;;;;;;20.20;5.18;;;;;;;;;;4979028;28;20044;-82
2023/12/27 07:29:48;;;;;;;20.90;4.55;;;;;;;;;;4964698;28;20034;-82
2023/12/27 07:32:14;;;;;;;16.10;4.40;;;;;;;;;;4986698;28;20582;-81
2023/12/27 07:34:42;;;;;;;16.80;5.03;;;;;;;;;;4975700;28;20496;-82
2023/12/27 07:37:08;;;;;;;20.10;4.13;;;;;;;;;;4994479;28;20058;-83
2023/12/27 07:39:35;;;;;;;22.13;4.68;;;;;;;;;;4978734;28;20505;-82
2023/12/27 07:42:01;;;;;;;11.90;3.88;;;;;;;;;;4997428;28;20046;-81
2023/12/27 07:44:27;;;;;;;14.75;4.38;;;;;;;;;;4956214;28;20038;-88
2023/12/27 07:46:53;;;;;;;17.10;4.47;;;;;;;;;;4974725;28;20049;-88
2023/12/27 07:49:19;;;;;;;14.45;3.72;;;;;;;;;;4996211;28;20584;-87
2023/12/27 07:51:45;;;;;;;15.10;4.22;;;;;;;;;;4992512;28;20084;-87
2023/12/27 07:54:11;;;;;;;10.45;4.00;;;;;;;;;;4991768;28;20497;-85
2023/12/27 07:56:38;;;;;;;14.07;3.45;;;;;;;;;;4962524;28;20057;-86
2023/12/27 07:59:04;;;;;;;18.02;3.78;;;;;;;;;;4985601;28;20065;-88
2023/12/27 08:01:31;;;;;;;12.32;3.50;;;;;;;;;;4964078;28;20045;-85
2023/12/27 08:03:59;;;;;;;16.30;4.00;;;;;;;;;;4974477;28;20066;-87
2023/12/27 08:06:26;;;;;;;14.48;3.90;;;;;;;;;;4975599;28;20589;-83
2023/12/27 08:08:52;;;;;;;13.38;3.88;;;;;;;;;;4980158;28;20062;-83
2023/12/27 08:11:20;;;;;;;13.50;3.80;;;;;;;;;;4959071;28;20096;-82
2023/12/27 08:13:46;;;;;;;15.80;3.53;;;;;;;;;;4993793;28;20095;-84
2023/12/27 08:16:12;;;;;;;11.38;3.20;;;;;;;;;;4992345;28;20041;-84
2023/12/27 08:18:38;;;;;;;9.30;3.30;;;;;;;;;;4991447;28;20496;-84
2023/12/27 08:21:04;;;;;;;12.23;3.08;;;;;;;;;;4990334;28;20057;-83
2023/12/27 08:23:31;;;;;;;20.17;3.50;;;;;;;;;;4989109;28;20119;-83
2023/12/27 08:25:57;;;;;;;13.65;3.10;;;;;;;;;;4981268;28;20045;-83
2023/12/27 08:28:24;;;;;;;18.45;3.53;;;;;;;;;;4980072;28;20045;-83
2023/12/27 08:30:50;;;;;;;19.15;3.33;;;;;;;;;;4986175;28;20124;-84
2023/12/27 08:33:16;;;;;;;12.30;2.53;;;;;;;;;;4992247;28;20068;-84
2023/12/27 08:35:42;;;;;;;11.50;3.05;;;;;;;;;;4993536;28;20302;-83
2023/12/27 08:38:09;;;;;;;17.80;3.10;;;;;;;;;;4975136;28;20057;-83
2023/12/27 08:40:35;;;;;;;14.30;2.88;;;;;;;;;;4986419;28;20386;-84
2023/12/27 08:43:02;;;;;;;12.52;3.30;;;;;;;;;;4965895;28;20172;-84
2023/12/27 08:45:28;;;;;;;14.70;2.17;;;;;;;;;;4974351;28;20118;-83
2023/12/27 08:47:54;;;;;;;10.73;2.40;;;;;;;;;;4990841;28;20057;-83
2023/12/27 08:50:20;;;;;;;11.50;2.58;;;;;;;;;;4973317;28;20030;-83
2023/12/27 08:52:46;;;;;;;14.27;3.13;;;;;;;;;;4975401;28;20054;-83
2023/12/27 08:55:12;;;;;;;14.60;3.00;;;;;;;;;;4977273;28;20167;-81
2023/12/27 08:57:40;;;;;;;15.82;2.75;;;;;;;;;;4975497;28;20045;-81
2023/12/27 09:00:10;;;;;;;16.60;2.58;;;;;;;;;;4972783;28;20437;-82
2023/12/27 09:02:37;;;;;;;12.25;2.33;;;;;;;;;;4978197;28;20413;-81
2023/12/27 09:05:03;;;;;;;12.60;2.30;;;;;;;;;;4971773;28;20046;-79
2023/12/27 09:07:30;;;;;;;6.47;2.00;;;;;;;;;;4974341;28;20425;-81
2023/12/27 09:09:57;;;;;;;10.88;2.10;;;;;;;;;;4986629;28;20104;-81
2023/12/27 09:12:23;;;;;;;18.58;2.55;;;;;;;;;;4989172;28;20042;-80
2023/12/27 09:14:49;;;;;;;11.45;2.03;;;;;;;;;;4983352;28;20037;-82
2023/12/27 09:17:15;;;;;;;8.02;2.05;;;;;;;;;;4993401;28;20532;-88
2023/12/27 09:19:42;;;;;;;12.88;3.00;;;;;;;;;;4984992;28;20042;-83
2023/12/27 09:22:08;;;;;;;10.35;2.17;;;;;;;;;;4983943;28;20049;-87
2023/12/27 09:24:34;;;;;;;6.88;1.95;;;;;;;;;;4975703;28;20053;-87
2023/12/27 09:27:00;;;;;;;8.75;2.10;;;;;;;;;;4960818;28;20041;-85
2023/12/27 09:29:26;;;;;;;14.48;4.72;;;;;;;;;;4990732;28;20078;-86
2023/12/27 09:31:53;;;;;;;27.80;9.50;;;;;;;;;;4974041;28;20485;-87
2023/12/27 09:34:19;;;;;;;15.13;3.05;;;;;;;;;;4974527;28;20073;-86
2023/12/27 09:36:45;;;;;;;18.95;9.18;;;;;;;;;;4986092;28;20045;-86
2023/12/27 09:39:13;;;;;;;17.65;5.30;;;;;;;;;;4990311;28;20061;-83
2023/12/27 09:41:40;;;;;;;14.10;3.50;;;;;;;;;;4977424;28;20083;-82
2023/12/27 09:44:07;;;;;;;13.70;5.20;;;;;;;;;;4974421;28;22009;-86
2023/12/27 09:46:36;;;;;;;8.13;3.60;;;;;;;;;;4970527;28;20097;-87
2023/12/27 09:49:02;;;;;;;18.10;5.78;;;;;;;;;;4974979;28;20034;-85
2023/12/27 09:51:29;;;;;;;19.98;4.60;;;;;;;;;;4960931;28;20112;-87
2023/12/27 09:53:55;;;;;;;14.10;2.47;;;;;;;;;;4974532;28;20054;-87
2023/12/27 09:56:22;;;;;;;12.80;3.30;;;;;;;;;;4990531;28;20508;-85
2023/12/27 09:58:55;;;;;;;12.43;2.85;;;;;;;;;;4958740;28;20125;-82
2023/12/27 10:01:24;;;;;;;10.43;3.55;;;;;;;;;;4968305;28;20048;-86
2023/12/27 10:03:55;;;;;;;16.48;5.53;;;;;;;;;;4972748;28;20433;-86
2023/12/27 10:06:42;;;;;;;14.25;2.58;;;;;;;;;;4974778;28;20112;-86
2023/12/27 10:09:09;;;;;;;15.02;3.85;;;;;;;;;;4986654;28;20068;-87
2023/12/27 10:11:35;;;;;;;24.73;8.82;;;;;;;;;;4988128;28;20038;-85
2023/12/27 10:14:04;;;;;;;17.25;4.90;;;;;;;;;;4990892;28;20468;-87
2023/12/27 10:16:30;;;;;;;11.25;2.50;;;;;;;;;;4973365;28;20037;-87
2023/12/27 10:18:57;;;;;;;10.93;2.55;;;;;;;;;;4972288;28;20046;-84
2023/12/27 10:21:23;;;;;;;17.85;4.70;;;;;;;;;;4986407;28;20104;-86
2023/12/27 10:23:49;;;;;;;17.02;5.00;;;;;;;;;;4972092;28;20044;-86
2023/12/27 10:26:16;;;;;;;13.55;3.30;;;;;;;;;;4972127;28;20530;-84
2023/12/27 10:28:44;;;;;;;11.88;3.85;;;;;;;;;;4986268;28;20105;-83
2023/12/27 10:31:10;;;;;;;25.02;8.25;;;;;;;;;;4983250;28;20074;-84
2023/12/27 10:33:46;;;;;;;19.55;4.78;;;;;;;;;;4957789;28;20042;-84
2023/12/27 10:36:12;;;;;;;15.65;3.70;;;;;;;;;;5001984;28;20501;-84
2023/12/27 10:38:38;;;;;;;14.70;3.42;;;;;;;;;;4990120;28;20069;-84
2023/12/27 10:41:06;;;;;;;16.92;4.30;;;;;;;;;;4976528;28;20087;-85
2023/12/27 10:43:35;;;;;;;22.88;4.80;;;;;;;;;;4989775;28;20448;-84
2023/12/27 10:46:07;;;;;;;17.95;5.10;;;;;;;;;;4974005;28;20049;-83
2023/12/27 10:48:34;;;;;;;20.08;5.22;;;;;;;;;;4992587;28;20041;-85
2023/12/27 10:51:00;;;;;;;16.60;4.03;;;;;;;;;;4989338;28;20041;-84
2023/12/27 10:53:29;;;;;;;13.23;3.67;;;;;;;;;;4985349;28;20409;-85
2023/12/27 10:55:59;;;;;;;23.20;4.25;;;;;;;;;;4988705;28;20072;-85
2023/12/27 10:58:25;;;;;;;14.98;3.80;;;;;;;;;;4975413;28;20316;-85
2023/12/27 11:00:52;;;;;;;15.50;4.50;;;;;;;;;;4985420;28;20050;-85
2023/12/27 11:03:20;;;;;;;17.63;5.70;;;;;;;;;;4974695;28;20364;-84
2023/12/27 11:05:47;;;;;;;22.17;3.92;;;;;;;;;;4987850;28;20042;-84
2023/12/27 11:08:14;;;;;;;19.23;3.72;;;;;;;;;;4974865;28;20046;-85
2023/12/27 11:10:42;;;;;;;14.63;3.88;;;;;;;;;;4988349;28;20046;-85
2023/12/27 11:13:10;;;;;;;16.63;4.68;;;;;;;;;;4986604;28;20077;-85
2023/12/27 11:15:44;;;;;;;10.05;4.00;;;;;;;;;;4972684;28;20397;-82
2023/12/27 11:18:11;;;;;;;15.45;4.95;;;;;;;;;;4969316;28;20386;-82
2023/12/27 11:20:38;;;;;;;14.23;4.38;;;;;;;;;;4994731;28;20046;-80
2023/12/27 11:23:04;;;;;;;9.40;3.88;;;;;;;;;;4971069;28;20081;-84
2023/12/27 11:25:30;;;;;;;21.92;6.10;;;;;;;;;;4986022;28;20436;-80
2023/12/27 11:27:57;;;;;;;19.15;6.35;;;;;;;;;;4976547;28;20042;-81
2023/12/27 11:30:23;;;;;;;22.95;6.07;;;;;;;;;;4964090;28;20502;-80
2023/12/27 11:32:49;;;;;;;19.80;6.65;;;;;;;;;;4970183;28;20117;-80
2023/12/27 11:35:25;;;;;;;19.20;6.22;;;;;;;;;;4960855;28;20077;-83
2023/12/27 11:38:10;;;;;;;21.63;7.03;;;;;;;;;;4981861;28;20053;-81
2023/12/27 11:40:39;;;;;;;12.35;5.70;;;;;;;;;;4976528;28;20477;-83
2023/12/27 11:43:05;;;;;;;16.48;6.57;;;;;;;;;;4990505;28;20081;-88
2023/12/27 11:46:07;;;;;;;21.20;7.07;;;;;;;;;;4989776;28;20054;-86
2023/12/27 11:48:36;;;;;;;18.83;5.47;;;;;;;;;;4925681;29;20043;-86
2023/12/27 11:51:02;;;;;;;16.77;5.20;;;;;;;;;;4984952;28;20050;-87
2023/12/27 11:53:32;;;;;;;16.58;7.07;;;;;;;;;;4971798;28;20441;-87
2023/12/27 11:56:00;;;;;;;24.75;7.68;;;;;;;;;;4988068;28;20170;-87
2023/12/27 11:58:31;;;;;;;23.45;9.10;;;;;;;;;;4974085;28;20038;-87
2023/12/27 12:00:57;;;;;;;24.67;9.30;;;;;;;;;;4971421;28;20034;-87
2023/12/27 12:03:27;;;;;;;21.13;9.00;;;;;;;;;;4961643;28;20046;-87
2023/12/27 12:06:14;;;;;;;20.20;8.00;;;;;;;;;;4974415;28;20720;-84
2023/12/27 12:08:42;;;;;;;19.63;7.95;;;;;;;;;;4970201;28;20481;-88
2023/12/27 12:11:12;;;;;;;20.80;8.75;;;;;;;;;;4985560;28;20050;-87
2023/12/27 12:13:38;;;;;;;17.25;8.45;;;;;;;;;;4972702;28;20069;-89
2023/12/27 12:16:05;;;;;;;21.55;7.60;;;;;;;;;;4970503;28;20076;-88
2023/12/27 12:18:32;;;;;;;24.83;7.80;;;;;;;;;;4974965;28;20371;-88
2023/12/27 12:20:58;;;;;;;15.95;6.63;;;;;;;;;;4974126;28;20045;-85
2023/12/27 12:23:24;;;;;;;19.50;8.23;;;;;;;;;;4967819;28;20505;-87
2023/12/27 12:25:51;;;;;;;22.35;7.82;;;;;;;;;;4975699;28;20172;-83
2023/12/27 12:28:17;;;;;;;23.10;9.07;;;;;;;;;;4958021;28;20038;-82
2023/12/27 12:30:46;;;;;;;25.70;8.88;;;;;;;;;;4983385;28;20826;-83
2023/12/27 12:33:12;;;;;;;25.92;9.20;;;;;;;;;;4982021;28;20500;-83
2023/12/27 12:35:40;;;;;;;27.02;7.82;;;;;;;;;;4982931;28;20041;-83
2023/12/27 12:38:06;;;;;;;19.83;10.10;;;;;;;;;;4975109;28;20177;-82
2023/12/27 12:40:32;;;;;;;26.55;9.82;;;;;;;;;;4973845;28;20148;-83
2023/12/27 12:42:59;;;;;;;21.95;9.45;;;;;;;;;;4985460;28;20138;-82
2023/12/27 12:45:25;;;;;;;40.30;19.15;;;;;;;;;;4989288;28;20079;-82
2023/12/27 12:47:51;;;;;;;22.13;11.57;;;;;;;;;;4987969;28;20045;-82
2023/12/27 12:50:18;;;;;;;24.48;10.75;;;;;;;;;;4986090;28;20366;-83
2023/12/27 12:52:45;;;;;;;24.27;10.98;;;;;;;;;;4959369;28;20049;-83
2023/12/27 12:55:11;;;;;;;25.00;12.40;;;;;;;;;;4972902;28;20038;-83
2023/12/27 12:57:38;;;;;;;28.25;11.15;;;;;;;;;;4974401;28;20038;-83
2023/12/27 13:00:08;;;;;;;32.20;11.95;;;;;;;;;;4989553;28;20168;-82
2023/12/27 13:02:34;;;;;;;30.13;11.73;;;;;;;;;;4973766;28;20371;-83
2023/12/27 13:05:00;;;;;;;24.10;11.15;;;;;;;;;;4982751;28;20054;-82
2023/12/27 13:07:27;;;;;;;28.02;14.38;;;;;;;;;;4959032;28;20521;-85
2023/12/27 13:10:00;;;;;;;24.95;13.75;;;;;;;;;;4973284;28;20038;-83
2023/12/27 13:12:30;;;;;;;27.73;14.80;;;;;;;;;;4986395;28;20378;-83
2023/12/27 13:14:56;;;;;;;39.22;14.55;;;;;;;;;;4974670;28;20070;-83
2023/12/27 13:17:22;;;;;;;33.00;15.20;;;;;;;;;;4988624;28;20042;-84
2023/12/27 13:19:48;;;;;;;25.98;12.95;;;;;;;;;;4973450;28;20046;-83
2023/12/27 13:22:14;;;;;;;30.83;14.10;;;;;;;;;;4989088;28;20505;-82
2023/12/27 13:24:40;;;;;;;30.70;15.13;;;;;;;;;;4956231;28;20042;-84
2023/12/27 13:27:07;;;;;;;32.35;16.10;;;;;;;;;;4967289;28;20099;-81
2023/12/27 13:29:33;;;;;;;31.50;16.23;;;;;;;;;;4991519;28;20617;-81
2023/12/27 13:31:59;;;;;;;34.33;17.63;;;;;;;;;;4988632;28;20061;-83
2023/12/27 13:34:25;;;;;;;34.95;18.38;;;;;;;;;;4972052;28;20080;-83
2023/12/27 13:36:51;;;;;;;43.60;20.02;;;;;;;;;;4972885;28;20058;-86
2023/12/27 13:39:17;;;;;;;42.55;21.20;;;;;;;;;;4978580;28;20056;-88
2023/12/27 13:41:43;;;;;;;34.17;20.45;;;;;;;;;;4992223;28;20107;-87
2023/12/27 13:44:09;;;;;;;40.88;20.73;;;;;;;;;;4994418;28;20042;-87
2023/12/27 13:46:35;;;;;;;34.03;18.77;;;;;;;;;;4970819;28;20418;-86
2023/12/27 13:49:02;;;;;;;31.08;19.60;;;;;;;;;;4974520;28;20390;-86
2023/12/27 13:51:28;;;;;;;41.05;20.20;;;;;;;;;;4959831;28;20034;-86
2023/12/27 13:53:54;;;;;;;31.67;19.50;;;;;;;;;;4986747;28;20541;-85
2023/12/27 13:56:21;;;;;;;42.50;20.33;;;;;;;;;;4976260;28;20400;-87
2023/12/27 13:58:47;;;;;;;34.72;19.65;;;;;;;;;;4971868;28;20065;-87
2023/12/27 14:01:13;;;;;;;39.70;19.00;;;;;;;;;;4961684;28;20048;-87
2023/12/27 14:03:41;;;;;;;41.22;19.02;;;;;;;;;;4974408;28;20046;-87
2023/12/27 14:06:11;;;;;;;39.38;19.35;;;;;;;;;;4988058;28;20048;-87
2023/12/27 14:08:37;;;;;;;33.78;20.52;;;;;;;;;;4974473;28;20065;-89
2023/12/27 14:11:04;;;;;;;35.45;21.58;;;;;;;;;;4958631;28;20636;-87
2023/12/27 14:13:30;;;;;;;33.28;21.35;;;;;;;;;;4975168;28;20053;-88
2023/12/27 14:15:57;;;;;;;39.97;22.70;;;;;;;;;;4976188;28;20046;-87
2023/12/27 14:18:26;;;;;;;41.30;24.95;;;;;;;;;;4958801;28;20054;-87
2023/12/27 14:20:52;;;;;;;38.83;23.33;;;;;;;;;;4955521;28;20069;-86
2023/12/27 14:23:18;;;;;;;43.15;22.65;;;;;;;;;;4971170;28;20136;-87
2023/12/27 14:25:44;;;;;;;44.35;24.40;;;;;;;;;;4972046;28;20061;-86
2023/12/27 14:28:10;;;;;;;42.33;22.98;;;;;;;;;;4978732;28;20132;-88